Terminal Aerodrome Forecast
Issued by NWS Charleston, SC

Home | Current Version | Previous Version | Text Only | Print | Product List | Glossary On
Versions: 1 2 3 4 5 6 7 8 9 10 11 12 13 14 15 16 17
778
FTUS42 KCHS 090113 AAA
TAFSAV
TAF AMD
KSAV 090113Z 0901/0924 27013G20KT 6SM -RA OVC035
     FM090200 29013G20KT P6SM BKN060
     FM090500 28014G21KT P6SM SCT040
     FM091600 27024G32KT P6SM SCT035 BKN050=

USA.gov is the U.S. government's official web portal to all federal, state and local government web resources and services.